Terminal Aerodrome Forecast
Issued by NWS Wilmington, OH

Current Version | Previous Version | Graphics & Text | Print | Product List | Glossary On
Versions: 1 2 3 4 5 6 7 8 9 10 11 12 13 14
327
FTUS41 KILN 070524
TAFCMH
TAF
KCMH 070524Z 0706/0806 VRB02KT P6SM SCT250
     FM071600 20012KT P6SM BKN150
     FM072300 22008KT P6SM SCT050 OVC120=

USA.gov is the U.S. government's official web portal to all federal, state and local government web resources and services.